createdAt,value
2022-11-07T00:01:49.091Z,3.60
2022-11-07T00:04:16.658Z,5.27
2022-11-07T00:06:44.663Z,4.57
2022-11-07T00:09:11.642Z,2.83
2022-11-07T00:11:39.569Z,2.73
2022-11-07T00:14:06.652Z,4.53
2022-11-07T00:16:33.590Z,3.33
2022-11-07T00:19:00.529Z,4.10
2022-11-07T00:21:27.727Z,3.40
2022-11-07T00:23:55.704Z,3.40
2022-11-07T00:26:22.762Z,3.60
2022-11-07T00:28:49.638Z,3.57
2022-11-07T00:31:19.456Z,6.10
2022-11-07T00:33:46.888Z,4.03
2022-11-07T00:36:32.194Z,2.93
2022-11-07T00:38:59.210Z,3.73
2022-11-07T00:41:26.316Z,3.30
2022-11-07T00:43:53.956Z,3.57
2022-11-07T00:46:21.748Z,3.47
2022-11-07T00:48:49.897Z,3.40
2022-11-07T00:51:23.846Z,3.63
2022-11-07T00:53:51.599Z,9.93
2022-11-07T00:56:24.928Z,3.20
2022-11-07T00:58:57.130Z,4.60
2022-11-07T01:01:32.217Z,4.90
2022-11-07T01:04:17.833Z,3.43
2022-11-07T01:06:46.233Z,7.90
2022-11-07T01:09:18.684Z,3.33
2022-11-07T01:11:46.944Z,4.00
2022-11-07T01:14:17.606Z,6.83
2022-11-07T01:16:44.978Z,3.07
2022-11-07T01:19:11.973Z,3.43
2022-11-07T01:21:42.801Z,3.37
2022-11-07T01:24:12.240Z,3.90
2022-11-07T01:26:41.349Z,4.30
2022-11-07T01:29:09.206Z,3.47
2022-11-07T01:31:36.244Z,4.50
2022-11-07T01:34:03.280Z,3.97
2022-11-07T01:36:30.413Z,4.73
2022-11-07T01:38:57.510Z,2.90
2022-11-07T01:41:30.550Z,3.33
2022-11-07T01:44:04.525Z,8.00
2022-11-07T01:46:39.338Z,2.90
2022-11-07T01:49:11.424Z,2.40
2022-11-07T01:52:05.057Z,3.50
2022-11-07T01:54:45.645Z,4.90
2022-11-07T01:57:23.734Z,2.80
2022-11-07T01:59:54.413Z,6.80
2022-11-07T02:02:25.844Z,4.20
2022-11-07T02:04:55.224Z,3.80
2022-11-07T02:07:23.773Z,3.80
2022-11-07T02:09:52.615Z,3.43
2022-11-07T02:12:21.131Z,5.73
2022-11-07T02:14:49.139Z,8.13
2022-11-07T02:17:16.766Z,5.20
2022-11-07T02:19:51.401Z,2.13
2022-11-07T02:22:40.117Z,3.27
2022-11-07T02:25:10.933Z,5.13
2022-11-07T02:27:39.389Z,4.27
2022-11-07T02:30:14.316Z,2.27
2022-11-07T02:32:41.297Z,2.93
2022-11-07T02:35:44.538Z,3.53
2022-11-07T02:38:24.093Z,2.57
2022-11-07T02:40:59.856Z,5.83
2022-11-07T02:43:29.479Z,4.43
2022-11-07T02:45:59.780Z,3.53
2022-11-07T02:48:32.620Z,4.40
2022-11-07T02:50:59.957Z,3.43
2022-11-07T02:53:26.817Z,2.30
2022-11-07T02:55:53.793Z,3.03
2022-11-07T02:58:20.677Z,2.30
2022-11-07T03:00:47.618Z,2.30
2022-11-07T03:03:15.117Z,3.40
2022-11-07T03:05:42.303Z,3.60
2022-11-07T03:08:09.242Z,3.77
2022-11-07T03:10:40.157Z,3.90
2022-11-07T03:13:07.139Z,5.03
2022-11-07T03:15:35.155Z,2.40
2022-11-07T03:18:02.139Z,2.80
2022-11-07T03:20:29.109Z,3.23
2022-11-07T03:22:56.065Z,3.43
2022-11-07T03:25:22.912Z,2.23
2022-11-07T03:27:50.719Z,3.40
2022-11-07T03:30:18.150Z,3.60
2022-11-07T03:32:45.339Z,2.67
2022-11-07T03:35:12.561Z,4.53
2022-11-07T03:37:39.827Z,1.97
2022-11-07T03:40:07.657Z,2.33
2022-11-07T03:42:43.026Z,4.53
2022-11-07T03:45:13.234Z,2.83
2022-11-07T03:47:43.207Z,3.00
2022-11-07T03:50:15.218Z,3.10
2022-11-07T03:52:42.594Z,3.57
2022-11-07T03:55:11.110Z,7.13
2022-11-07T03:57:38.675Z,6.60
2022-11-07T04:00:07.313Z,2.90
2022-11-07T04:02:34.355Z,3.63
2022-11-07T04:05:01.553Z,2.30
2022-11-07T04:07:28.585Z,3.57
2022-11-07T04:09:55.493Z,2.10
2022-11-07T04:12:40.854Z,4.37
2022-11-07T04:15:29.199Z,2.67
2022-11-07T04:17:56.258Z,4.07
2022-11-07T04:20:24.214Z,4.63
2022-11-07T04:22:51.091Z,2.47
2022-11-07T04:25:18.059Z,3.77
2022-11-07T04:27:46.784Z,1.73
2022-11-07T04:30:19.322Z,3.57
2022-11-07T04:32:52.381Z,2.87
2022-11-07T04:35:21.338Z,3.60
2022-11-07T04:37:49.306Z,1.93
2022-11-07T04:40:17.725Z,6.87
2022-11-07T04:42:45.974Z,4.60
2022-11-07T04:45:13.889Z,4.07
2022-11-07T04:47:41.295Z,4.57
2022-11-07T04:50:14.201Z,3.40
2022-11-07T04:52:41.843Z,3.77
2022-11-07T04:55:17.802Z,5.23
2022-11-07T04:57:45.385Z,5.10
2022-11-07T05:00:13.172Z,3.23
2022-11-07T05:02:40.228Z,2.20
2022-11-07T05:05:07.660Z,2.70
2022-11-07T05:07:34.547Z,7.20
2022-11-07T05:10:01.497Z,4.30
2022-11-07T05:12:28.438Z,2.20
2022-11-07T05:14:55.321Z,3.90
2022-11-07T05:17:26.886Z,3.33
2022-11-07T05:19:54.874Z,4.00
2022-11-07T05:22:41.234Z,4.20
2022-11-07T05:25:09.141Z,2.00
2022-11-07T05:27:36.126Z,6.67
2022-11-07T05:30:03.847Z,3.10
2022-11-07T05:32:30.868Z,5.03
2022-11-07T05:34:57.823Z,4.47
2022-11-07T05:37:24.823Z,5.60
2022-11-07T05:39:54.979Z,2.30
2022-11-07T05:42:22.215Z,9.90
2022-11-07T05:44:49.064Z,3.80
2022-11-07T05:47:15.943Z,2.93
2022-11-07T05:49:42.915Z,3.30
2022-11-07T05:52:10.910Z,4.83
2022-11-07T05:54:37.814Z,3.27
2022-11-07T05:57:05.329Z,2.13
2022-11-07T05:59:32.436Z,4.90
2022-11-07T06:01:59.388Z,3.97
2022-11-07T06:04:26.414Z,2.53
2022-11-07T06:06:53.365Z,4.70
2022-11-07T06:09:21.333Z,2.90
2022-11-07T06:11:48.302Z,9.03
2022-11-07T06:14:15.222Z,5.23
2022-11-07T06:16:42.192Z,4.50
2022-11-07T06:19:09.078Z,3.93
2022-11-07T06:21:36.051Z,2.33
2022-11-07T06:24:03.530Z,2.20
2022-11-07T06:26:30.594Z,3.93
2022-11-07T06:28:57.518Z,3.93
2022-11-07T06:31:25.513Z,5.37
2022-11-07T06:33:52.785Z,5.07
2022-11-07T06:36:19.717Z,5.53
2022-11-07T06:38:51.950Z,3.27
2022-11-07T06:41:18.995Z,5.20
2022-11-07T06:43:45.871Z,5.50
2022-11-07T06:46:14.018Z,4.33
2022-11-07T06:48:41.031Z,5.30
2022-11-07T06:51:09.912Z,4.60
2022-11-07T06:53:37.301Z,5.43
2022-11-07T06:56:07.989Z,2.00
2022-11-07T06:58:36.412Z,3.50
2022-11-07T07:01:13.797Z,2.60
2022-11-07T07:03:42.671Z,4.70
2022-11-07T07:06:15.411Z,4.00
2022-11-07T07:08:43.728Z,3.57
2022-11-07T07:11:14.179Z,3.67
2022-11-07T07:13:41.637Z,3.20
2022-11-07T07:16:09.394Z,2.43
2022-11-07T07:18:37.661Z,5.00
2022-11-07T07:21:05.759Z,3.40
2022-11-07T07:23:34.704Z,3.87
2022-11-07T07:26:03.245Z,2.50
2022-11-07T07:28:30.309Z,5.13
2022-11-07T07:31:15.362Z,5.50
2022-11-07T07:33:44.203Z,4.63
2022-11-07T07:36:17.807Z,2.83
2022-11-07T07:38:48.427Z,2.67
2022-11-07T07:41:15.840Z,6.50
2022-11-07T07:43:42.954Z,4.43
2022-11-07T07:46:15.110Z,4.40
2022-11-07T07:48:42.108Z,2.20
2022-11-07T07:51:09.074Z,3.90
2022-11-07T07:53:36.009Z,5.23
2022-11-07T07:56:05.575Z,12.03
2022-11-07T07:58:33.304Z,7.70
2022-11-07T08:01:00.584Z,3.77
2022-11-07T08:03:32.064Z,4.87
2022-11-07T08:06:03.476Z,1.90
2022-11-07T08:08:35.260Z,2.33
2022-11-07T08:11:08.228Z,6.20
2022-11-07T08:13:36.065Z,3.27
2022-11-07T08:16:05.456Z,3.80
2022-11-07T08:18:32.449Z,5.90
2022-11-07T08:20:59.355Z,6.27
2022-11-07T08:23:26.208Z,5.27
2022-11-07T08:25:58.947Z,2.27
2022-11-07T08:28:32.056Z,5.00
2022-11-07T08:31:02.034Z,3.47
2022-11-07T08:33:29.476Z,4.83
2022-11-07T08:36:00.381Z,3.07
2022-11-07T08:38:29.957Z,8.93
2022-11-07T08:40:57.405Z,3.53
2022-11-07T08:43:24.878Z,5.73
2022-11-07T08:45:53.935Z,6.30
2022-11-07T08:48:21.783Z,7.70
2022-11-07T08:50:54.144Z,3.80
2022-11-07T08:53:22.696Z,3.00
2022-11-07T08:55:49.820Z,5.80
2022-11-07T08:58:16.858Z,3.07
2022-11-07T09:00:43.883Z,4.67
2022-11-07T09:06:01.384Z,3.90
2022-11-07T09:08:28.694Z,4.43
2022-11-07T09:10:55.703Z,5.67
2022-11-07T09:13:22.661Z,4.10
2022-11-07T09:15:51.716Z,5.90
2022-11-07T09:18:19.971Z,12.43
2022-11-07T09:20:47.450Z,7.10
2022-11-07T09:23:14.771Z,4.73
2022-11-07T09:25:41.990Z,5.03
2022-11-07T09:28:09.380Z,7.83
2022-11-07T09:30:36.482Z,4.10
2022-11-07T09:33:03.502Z,4.83
2022-11-07T09:35:30.591Z,13.00
2022-11-07T09:37:57.526Z,13.13
2022-11-07T09:40:33.139Z,6.03
2022-11-07T09:43:51.042Z,8.43
2022-11-07T09:47:08.102Z,5.73
2022-11-07T09:49:39.704Z,7.20
2022-11-07T09:52:45.719Z,5.40
2022-11-07T09:55:34.259Z,3.97
2022-11-07T09:58:14.277Z,5.67
2022-11-07T10:00:41.593Z,7.63
2022-11-07T10:03:10.057Z,4.07
2022-11-07T10:06:05.351Z,3.27
2022-11-07T10:08:47.986Z,6.33
2022-11-07T10:11:58.756Z,9.37
2022-11-07T10:14:43.742Z,4.13
2022-11-07T10:17:54.184Z,5.93
2022-11-07T10:20:50.328Z,4.77
2022-11-07T10:23:37.374Z,5.90
2022-11-07T10:26:13.041Z,5.63
2022-11-07T10:29:21.478Z,4.10
2022-11-07T10:32:35.370Z,6.70
2022-11-07T10:35:26.181Z,2.50
2022-11-07T10:38:00.332Z,6.10
2022-11-07T10:40:40.400Z,4.53
2022-11-07T10:43:16.532Z,8.40
2022-11-07T10:45:44.131Z,12.80
2022-11-07T10:48:14.533Z,3.80
2022-11-07T10:50:51.067Z,6.77
2022-11-07T10:53:20.489Z,3.03
2022-11-07T10:55:51.178Z,7.27
2022-11-07T10:58:28.995Z,6.57
2022-11-07T11:01:09.090Z,6.73
2022-11-07T11:03:48.606Z,4.53
2022-11-07T11:06:18.681Z,3.90
2022-11-07T11:08:52.241Z,8.20
2022-11-07T11:11:22.135Z,8.90
2022-11-07T11:13:49.576Z,4.10
2022-11-07T11:16:29.958Z,4.80
2022-11-07T11:19:01.773Z,7.20
2022-11-07T11:21:47.205Z,3.67
2022-11-07T11:24:19.886Z,2.80
2022-11-07T11:26:50.289Z,5.80
2022-11-07T11:29:36.759Z,3.83
2022-11-07T11:32:18.006Z,7.07
2022-11-07T11:35:23.622Z,5.27
2022-11-07T11:38:03.841Z,4.90
2022-11-07T11:40:38.386Z,5.97
2022-11-07T11:43:23.455Z,3.23
2022-11-07T11:46:14.878Z,5.30
2022-11-07T11:49:15.803Z,6.90
2022-11-07T11:51:52.790Z,3.90
2022-11-07T11:54:19.806Z,3.83
2022-11-07T11:57:18.611Z,4.40
2022-11-07T12:00:07.422Z,5.97
2022-11-07T12:03:03.892Z,6.97
2022-11-07T12:05:52.319Z,7.67
2022-11-07T12:09:03.724Z,5.33
2022-11-07T12:11:55.655Z,5.33
2022-11-07T12:14:31.290Z,4.00
2022-11-07T12:17:17.052Z,5.67
2022-11-07T12:20:10.544Z,11.57
2022-11-07T12:22:50.840Z,6.10
2022-11-07T12:25:35.331Z,4.10
2022-11-07T12:28:27.315Z,6.33
2022-11-07T12:31:29.131Z,8.63
2022-11-07T12:34:14.260Z,5.73
2022-11-07T12:37:05.158Z,7.07
2022-11-07T12:39:54.270Z,11.37
2022-11-07T12:43:19.183Z,8.30
2022-11-07T12:45:59.151Z,8.53
2022-11-07T12:48:53.574Z,12.33
2022-11-07T12:51:46.652Z,5.07
2022-11-07T12:54:40.235Z,8.93
2022-11-07T12:57:22.009Z,5.53
2022-11-07T13:00:24.677Z,7.67
2022-11-07T13:03:17.389Z,5.20
2022-11-07T13:06:07.998Z,5.13
2022-11-07T13:08:49.917Z,4.67
2022-11-07T13:11:36.594Z,7.00
2022-11-07T13:14:24.481Z,8.90
2022-11-07T13:17:24.154Z,6.40
2022-11-07T13:20:22.943Z,7.10
2022-11-07T13:22:52.682Z,10.20
2022-11-07T13:25:24.231Z,6.47
2022-11-07T13:27:55.010Z,2.87
2022-11-07T13:30:31.492Z,10.30
2022-11-07T13:33:00.505Z,9.13
2022-11-07T13:35:37.170Z,6.23
2022-11-07T13:38:20.391Z,4.93
2022-11-07T13:40:53.277Z,5.13
2022-11-07T13:43:55.276Z,11.97
2022-11-07T13:46:31.338Z,4.20
2022-11-07T13:49:16.640Z,7.53
2022-11-07T13:51:48.759Z,5.90
2022-11-07T13:54:28.719Z,8.00
2022-11-07T13:57:03.202Z,4.93
2022-11-07T13:59:44.649Z,4.37
2022-11-07T14:02:23.882Z,8.43
2022-11-07T14:07:51.677Z,5.27
2022-11-07T14:10:29.767Z,5.07
2022-11-07T14:13:07.734Z,5.07
2022-11-07T14:15:36.920Z,5.10
2022-11-07T14:18:06.028Z,9.43
2022-11-07T14:20:32.929Z,6.97
2022-11-07T14:23:01.054Z,7.83
2022-11-07T14:25:35.628Z,9.20
2022-11-07T14:28:06.746Z,6.23
2022-11-07T14:30:33.700Z,6.70
2022-11-07T14:33:04.353Z,7.40
2022-11-07T14:35:34.683Z,6.23
2022-11-07T14:38:26.769Z,2.70
2022-11-07T14:40:59.951Z,4.50
2022-11-07T14:43:29.265Z,6.90
2022-11-07T14:46:12.301Z,6.60
2022-11-07T14:48:44.154Z,5.90
2022-11-07T14:51:18.265Z,11.00
2022-11-07T14:53:57.021Z,4.20
2022-11-07T14:56:38.808Z,6.50
2022-11-07T14:59:14.399Z,3.40
2022-11-07T15:01:58.172Z,4.40
2022-11-07T15:04:51.638Z,7.73
2022-11-07T15:07:29.984Z,7.00
2022-11-07T15:10:35.466Z,6.77
2022-11-07T15:13:24.960Z,8.60
2022-11-07T15:16:07.171Z,5.13
2022-11-07T15:18:42.981Z,7.60
2022-11-07T15:21:36.543Z,5.87
2022-11-07T15:24:33.095Z,3.73
2022-11-07T15:27:21.180Z,3.83
2022-11-07T15:29:57.467Z,5.97
2022-11-07T15:32:29.326Z,4.30
2022-11-07T15:35:12.130Z,6.40
2022-11-07T15:37:59.233Z,3.47
2022-11-07T15:40:29.368Z,6.77
2022-11-07T15:42:56.307Z,3.43
2022-11-07T15:45:23.880Z,2.80
2022-11-07T15:47:51.680Z,5.20
2022-11-07T15:50:22.675Z,4.90
2022-11-07T15:52:50.101Z,3.77
2022-11-07T15:55:24.003Z,5.63
2022-11-07T15:57:54.250Z,6.43
2022-11-07T16:00:26.472Z,5.77
2022-11-07T16:02:54.318Z,9.90
2022-11-07T16:05:21.362Z,3.40
2022-11-07T16:07:48.311Z,3.90
2022-11-07T16:10:25.943Z,6.97
2022-11-07T16:12:54.273Z,3.77
2022-11-07T16:15:25.199Z,4.40
2022-11-07T16:17:53.263Z,3.80
2022-11-07T16:20:23.320Z,5.70
2022-11-07T16:22:52.024Z,6.27
2022-11-07T16:25:23.926Z,8.60
2022-11-07T16:27:56.317Z,8.13
2022-11-07T16:30:26.100Z,6.03
2022-11-07T16:32:53.040Z,2.97
2022-11-07T16:35:19.904Z,5.93
2022-11-07T16:37:46.928Z,5.77
2022-11-07T16:40:18.133Z,3.23
2022-11-07T16:42:46.162Z,4.10
2022-11-07T16:45:20.413Z,7.30
2022-11-07T16:47:48.628Z,3.90
2022-11-07T16:50:17.177Z,5.47
2022-11-07T16:52:44.289Z,8.00
2022-11-07T16:55:17.191Z,6.90
2022-11-07T16:57:47.431Z,3.53
2022-11-07T17:00:23.657Z,5.93
2022-11-07T17:02:51.179Z,5.10
2022-11-07T17:05:18.559Z,6.77
2022-11-07T17:07:45.864Z,4.53
2022-11-07T17:10:17.997Z,5.50
2022-11-07T17:12:44.916Z,6.60
2022-11-07T17:15:11.883Z,7.70
2022-11-07T17:17:39.267Z,5.90
2022-11-07T17:20:07.924Z,4.73
2022-11-07T17:22:35.879Z,8.70
2022-11-07T17:25:02.929Z,7.60
2022-11-07T17:27:29.832Z,5.33
2022-11-07T17:29:57.099Z,8.47
2022-11-07T17:32:25.018Z,13.13
2022-11-07T17:35:17.757Z,8.10
2022-11-07T17:37:39.921Z,6.23
2022-11-07T17:40:07.504Z,6.00
2022-11-07T17:42:38.027Z,11.07
2022-11-07T17:45:06.956Z,5.70
2022-11-07T17:47:34.952Z,6.30
2022-11-07T17:50:02.596Z,4.17
2022-11-07T17:52:30.425Z,4.67
2022-11-07T17:54:57.394Z,4.00
2022-11-07T17:57:24.360Z,6.20
2022-11-07T17:59:51.718Z,4.30
2022-11-07T18:02:20.357Z,4.80
2022-11-07T18:04:47.971Z,5.80
2022-11-07T18:07:14.962Z,7.67
2022-11-07T18:09:42.809Z,5.60
2022-11-07T18:12:10.947Z,9.30
2022-11-07T18:14:39.087Z,6.07
2022-11-07T18:17:08.099Z,5.83
2022-11-07T18:19:35.058Z,4.40
2022-11-07T18:22:02.032Z,8.00
2022-11-07T18:24:28.966Z,5.50
2022-11-07T18:26:55.861Z,6.80
2022-11-07T18:29:22.867Z,5.13
2022-11-07T18:31:51.314Z,6.87
2022-11-07T18:34:18.331Z,5.47
2022-11-07T18:36:46.129Z,5.90
2022-11-07T18:39:19.205Z,8.70
2022-11-07T18:41:46.407Z,6.47
2022-11-07T18:44:13.924Z,5.73
2022-11-07T18:46:41.793Z,5.43
2022-11-07T18:49:08.893Z,7.77
2022-11-07T18:51:35.829Z,5.90
2022-11-07T18:54:04.912Z,4.73
2022-11-07T18:56:32.889Z,7.20
2022-11-07T18:59:00.703Z,8.93
2022-11-07T19:01:32.250Z,6.93
2022-11-07T19:04:03.445Z,8.93
2022-11-07T19:06:31.742Z,7.37
2022-11-07T19:08:59.307Z,8.50
2022-11-07T19:11:30.433Z,8.43
2022-11-07T19:14:03.331Z,8.57
2022-11-07T19:16:30.794Z,8.40
2022-11-07T19:19:00.283Z,8.07
2022-11-07T19:21:28.292Z,8.23
2022-11-07T19:23:57.278Z,5.77
2022-11-07T19:26:24.968Z,6.57
2022-11-07T19:28:54.059Z,4.43
2022-11-07T19:31:23.278Z,5.50
2022-11-07T19:33:50.221Z,6.50
2022-11-07T19:36:20.032Z,16.43
2022-11-07T19:38:50.659Z,13.13
2022-11-07T19:41:18.664Z,25.23
2022-11-07T19:43:49.830Z,16.30
2022-11-07T19:46:22.029Z,10.33
2022-11-07T19:48:50.774Z,13.43
2022-11-07T19:51:22.373Z,8.07
2022-11-07T19:53:55.586Z,20.27
2022-11-07T19:56:24.602Z,24.50
2022-11-07T19:58:51.689Z,24.60
2022-11-07T20:01:23.374Z,18.07
2022-11-07T20:03:56.123Z,18.73
2022-11-07T20:06:30.339Z,13.70
2022-11-07T20:08:58.214Z,11.67
2022-11-07T20:11:29.151Z,7.53
2022-11-07T20:14:01.757Z,9.93
2022-11-07T20:16:30.463Z,6.90
2022-11-07T20:18:57.587Z,9.77
2022-11-07T20:21:25.633Z,11.73
2022-11-07T20:23:57.481Z,8.20
2022-11-07T20:26:27.651Z,6.87
2022-11-07T20:28:54.509Z,10.13
2022-11-07T20:31:29.356Z,11.40
2022-11-07T20:34:05.828Z,6.80
2022-11-07T20:36:34.489Z,8.13
2022-11-07T20:39:03.996Z,9.03
2022-11-07T20:41:31.156Z,9.27
2022-11-07T20:44:04.207Z,10.60
2022-11-07T20:46:33.992Z,6.90
2022-11-07T20:49:02.900Z,8.10
2022-11-07T20:51:30.010Z,6.40
2022-11-07T20:53:57.154Z,7.07
2022-11-07T20:56:26.825Z,9.83
2022-11-07T20:58:57.999Z,8.63
2022-11-07T21:01:36.731Z,10.13
2022-11-07T21:04:09.049Z,10.87
2022-11-07T21:06:37.241Z,10.20
2022-11-07T21:09:05.570Z,12.67
2022-11-07T21:11:32.776Z,10.33
2022-11-07T21:13:59.798Z,10.30
2022-11-07T21:16:27.415Z,11.07
2022-11-07T21:18:55.774Z,11.53
2022-11-07T21:21:27.730Z,9.63
2022-11-07T21:23:56.830Z,6.00
2022-11-07T21:26:35.536Z,8.60
2022-11-07T21:29:07.494Z,10.37
2022-11-07T21:31:40.152Z,8.83
2022-11-07T21:34:09.629Z,11.00
2022-11-07T21:36:36.537Z,8.90
2022-11-07T21:39:03.680Z,9.80
2022-11-07T21:41:31.849Z,8.80
2022-11-07T21:43:59.853Z,7.10
2022-11-07T21:46:30.875Z,8.10
2022-11-07T21:48:59.012Z,10.03
2022-11-07T21:51:29.619Z,24.07
2022-11-07T21:53:58.164Z,25.07
2022-11-07T21:56:31.140Z,22.00
2022-11-07T21:59:06.471Z,17.27
2022-11-07T22:01:37.341Z,18.90
2022-11-07T22:04:12.108Z,12.63
2022-11-07T22:06:43.860Z,15.43
2022-11-07T22:09:19.456Z,7.30
2022-11-07T22:11:47.673Z,7.33
2022-11-07T22:14:20.416Z,7.00
2022-11-07T22:16:50.806Z,4.73
2022-11-07T22:19:19.817Z,7.20
2022-11-07T22:21:46.721Z,8.20
2022-11-07T22:24:13.645Z,7.17
2022-11-07T22:26:40.726Z,13.93
2022-11-07T22:29:07.781Z,10.77
2022-11-07T22:31:35.083Z,8.60
2022-11-07T22:34:02.353Z,3.90
2022-11-07T22:36:29.736Z,7.93
2022-11-07T22:38:58.028Z,6.70
2022-11-07T22:41:39.560Z,4.43
2022-11-07T22:44:07.505Z,7.70
2022-11-07T22:46:39.560Z,4.60
2022-11-07T22:49:09.606Z,5.30
2022-11-07T22:51:40.581Z,5.70
2022-11-07T22:54:12.892Z,5.53
2022-11-07T22:56:40.610Z,8.10
2022-11-07T22:59:08.169Z,8.40
2022-11-07T23:01:38.617Z,10.70
2022-11-07T23:04:06.988Z,5.67
2022-11-07T23:06:37.162Z,6.03
2022-11-07T23:09:05.318Z,9.30
2022-11-07T23:11:46.008Z,11.83
2022-11-07T23:14:18.687Z,9.83
2022-11-07T23:16:55.533Z,11.50
2022-11-07T23:19:25.417Z,10.40
2022-11-07T23:21:57.524Z,11.63
2022-11-07T23:24:24.811Z,11.20
2022-11-07T23:26:51.725Z,8.07
2022-11-07T23:29:23.070Z,5.63
2022-11-07T23:31:51.850Z,5.07
2022-11-07T23:34:20.418Z,11.30
2022-11-07T23:36:50.936Z,5.17
2022-11-07T23:39:21.019Z,5.07
2022-11-07T23:41:48.175Z,7.20
2022-11-07T23:44:15.564Z,4.13
2022-11-07T23:47:04.257Z,4.67
2022-11-07T23:49:50.008Z,5.33
2022-11-07T23:52:17.885Z,5.70
2022-11-07T23:55:16.835Z,7.60
2022-11-07T23:58:01.972Z,7.03
